Metar z pełnej godziny Komunikat METAR ze strony awiacja.imgw.pl Metar G00 EPBY METAR EPBY 271500Z 11003KT 3800 BR FEW006 SCT012 BKN016 02/01 Q0995=